createdAt,value
2019-04-27T00:01:14.389Z,100.00
2019-04-27T00:04:00.860Z,100.00
2019-04-27T00:06:33.744Z,100.00
2019-04-27T00:09:16.145Z,100.00
2019-04-27T00:11:54.590Z,100.00
2019-04-27T00:14:26.314Z,100.00
2019-04-27T00:17:15.353Z,100.00
2019-04-27T00:20:13.090Z,100.00
2019-04-27T00:22:56.472Z,100.00
2019-04-27T00:25:28.307Z,100.00
2019-04-27T00:27:59.636Z,100.00
2019-04-27T00:30:31.023Z,100.00
2019-04-27T00:33:05.162Z,100.00
2019-04-27T00:35:45.327Z,100.00
2019-04-27T00:38:25.453Z,100.00
2019-04-27T00:41:19.790Z,100.00
2019-04-27T00:43:53.086Z,100.00
2019-04-27T00:46:24.682Z,100.00
2019-04-27T00:48:56.136Z,100.00
2019-04-27T00:51:27.590Z,100.00
2019-04-27T00:53:59.208Z,100.00
2019-04-27T00:56:58.571Z,100.00
2019-04-27T01:00:01.030Z,100.00
2019-04-27T01:02:53.641Z,100.00
2019-04-27T01:05:26.520Z,100.00
2019-04-27T01:07:57.808Z,100.00
2019-04-27T01:10:29.276Z,100.00
2019-04-27T01:13:00.516Z,100.00
2019-04-27T01:15:33.815Z,100.00
2019-04-27T01:18:13.319Z,100.00
2019-04-27T01:20:40.005Z,100.00
2019-04-27T01:23:11.206Z,100.00
2019-04-27T01:25:59.393Z,100.00
2019-04-27T01:28:35.204Z,100.00
2019-04-27T01:31:09.234Z,100.00
2019-04-27T01:33:40.866Z,100.00
2019-04-27T01:36:12.630Z,100.00
2019-04-27T01:38:44.835Z,100.00
2019-04-27T01:41:16.271Z,100.00
2019-04-27T01:43:49.028Z,100.00
2019-04-27T01:46:20.538Z,100.00
2019-04-27T01:48:52.166Z,100.00
2019-04-27T01:51:23.481Z,100.00
2019-04-27T01:53:55.135Z,100.00
2019-04-27T01:56:26.997Z,100.00
2019-04-27T01:58:59.558Z,100.00
2019-04-27T02:02:03.680Z,100.00
2019-04-27T02:04:52.680Z,100.00
2019-04-27T02:07:24.410Z,100.00
2019-04-27T02:09:55.580Z,100.00
2019-04-27T02:12:29.448Z,100.00
2019-04-27T02:15:00.866Z,100.00
2019-04-27T02:17:32.192Z,100.00
2019-04-27T02:20:04.000Z,100.00
2019-04-27T02:22:38.456Z,100.00
2019-04-27T02:25:10.400Z,100.00
2019-04-27T02:27:44.650Z,100.00
2019-04-27T02:30:46.294Z,100.00
2019-04-27T02:33:36.406Z,100.00
2019-04-27T02:36:14.005Z,100.00
2019-04-27T02:38:42.191Z,100.00
2019-04-27T02:41:15.264Z,100.00
2019-04-27T02:44:02.223Z,100.00
2019-04-27T02:46:33.546Z,100.00
2019-04-27T02:49:07.160Z,100.00
2019-04-27T02:51:54.441Z,100.00
2019-04-27T02:54:25.574Z,100.00
2019-04-27T02:56:59.223Z,100.00
2019-04-27T02:59:30.427Z,100.00
2019-04-27T03:02:10.836Z,100.00
2019-04-27T03:04:42.180Z,100.00
2019-04-27T03:07:13.713Z,100.00
2019-04-27T03:09:44.946Z,100.00
2019-04-27T03:12:19.213Z,100.00
2019-04-27T03:15:00.632Z,100.00
2019-04-27T03:17:50.127Z,100.00
2019-04-27T03:20:40.535Z,100.00
2019-04-27T03:23:12.294Z,100.00
2019-04-27T03:25:55.097Z,100.00
2019-04-27T03:28:26.720Z,100.00
2019-04-27T03:31:02.044Z,100.00
2019-04-27T03:33:32.475Z,100.00
2019-04-27T03:36:05.670Z,100.00
2019-04-27T03:38:39.692Z,100.00
2019-04-27T03:41:11.342Z,100.00
2019-04-27T03:43:45.494Z,100.00
2019-04-27T03:46:16.801Z,100.00
2019-04-27T03:48:49.713Z,100.00
2019-04-27T03:51:35.813Z,100.00
2019-04-27T03:54:14.874Z,100.00
2019-04-27T03:56:50.885Z,100.00
2019-04-27T03:59:41.494Z,100.00
2019-04-27T04:02:13.048Z,100.00
2019-04-27T04:04:44.335Z,100.00
2019-04-27T04:07:16.899Z,100.00
2019-04-27T04:09:50.310Z,100.00
2019-04-27T04:12:35.622Z,100.00
2019-04-27T04:15:11.654Z,100.00
2019-04-27T04:17:42.850Z,100.00
2019-04-27T04:20:14.124Z,100.00
2019-04-27T04:22:51.476Z,100.00
2019-04-27T04:25:22.844Z,100.00
2019-04-27T04:27:54.081Z,100.00
2019-04-27T04:30:25.387Z,100.00
2019-04-27T04:32:56.553Z,100.00
2019-04-27T04:35:32.548Z,100.00
2019-04-27T04:38:01.993Z,100.00
2019-04-27T04:40:40.056Z,100.00
2019-04-27T04:43:20.663Z,100.00
2019-04-27T04:46:12.343Z,100.00
2019-04-27T04:48:42.203Z,100.00
2019-04-27T04:51:13.373Z,100.00
2019-04-27T04:53:44.588Z,100.00
2019-04-27T04:56:16.238Z,100.00
2019-04-27T04:58:49.616Z,100.00
2019-04-27T05:01:20.329Z,100.00
2019-04-27T05:03:51.555Z,100.00
2019-04-27T05:06:25.456Z,100.00
2019-04-27T05:08:55.986Z,100.00
2019-04-27T05:11:27.534Z,100.00
2019-04-27T05:13:59.373Z,100.00
2019-04-27T05:16:32.913Z,100.00
2019-04-27T05:19:04.117Z,100.00
2019-04-27T05:21:35.989Z,100.00
2019-04-27T05:24:09.206Z,100.00
2019-04-27T05:26:40.052Z,100.00
2019-04-27T05:29:11.290Z,100.00
2019-04-27T05:31:44.101Z,100.00
2019-04-27T05:34:15.244Z,100.00
2019-04-27T05:36:48.492Z,100.00
2019-04-27T05:39:24.706Z,100.00
2019-04-27T05:41:52.274Z,100.00
2019-04-27T05:44:45.650Z,100.00
2019-04-27T05:47:48.405Z,100.00
2019-04-27T05:50:21.859Z,100.00
2019-04-27T05:52:51.037Z,100.00
2019-04-27T05:55:22.577Z,100.00
2019-04-27T05:57:53.824Z,100.00
2019-04-27T06:00:25.785Z,100.00
2019-04-27T06:02:58.921Z,100.00
2019-04-27T06:05:30.137Z,100.00
2019-04-27T06:08:03.305Z,100.00
2019-04-27T06:10:34.603Z,100.00
2019-04-27T06:13:05.961Z,100.00
2019-04-27T06:15:38.974Z,100.00
2019-04-27T06:18:10.750Z,100.00
2019-04-27T06:20:53.481Z,100.00
2019-04-27T06:23:18.641Z,100.00
2019-04-27T06:25:50.416Z,100.00
2019-04-27T06:28:22.281Z,100.00
2019-04-27T06:30:53.523Z,100.00
2019-04-27T06:33:31.969Z,100.00
2019-04-27T06:36:11.219Z,100.00
2019-04-27T06:38:44.078Z,100.00
2019-04-27T06:41:16.632Z,100.00
2019-04-27T06:43:49.480Z,100.00
2019-04-27T06:46:20.892Z,100.00
2019-04-27T06:48:52.449Z,100.00
2019-04-27T06:51:28.814Z,100.00
2019-04-27T06:54:01.954Z,100.00
2019-04-27T06:56:34.087Z,100.00
2019-04-27T06:59:08.729Z,100.00
2019-04-27T07:01:40.339Z,100.00
2019-04-27T07:04:12.376Z,100.00
2019-04-27T07:06:53.253Z,100.00
2019-04-27T07:09:16.693Z,100.00
2019-04-27T07:11:49.389Z,100.00
2019-04-27T07:14:21.973Z,100.00
2019-04-27T07:16:53.936Z,100.00
2019-04-27T07:19:25.307Z,100.00
2019-04-27T07:21:59.458Z,100.00
2019-04-27T07:24:31.193Z,100.00
2019-04-27T07:27:03.243Z,100.00
2019-04-27T07:29:34.615Z,100.00
2019-04-27T07:32:06.139Z,100.00
2019-04-27T07:34:38.805Z,100.00
2019-04-27T07:37:11.191Z,100.00
2019-04-27T07:39:43.084Z,100.00
2019-04-27T07:42:15.537Z,100.00
2019-04-27T07:45:03.291Z,100.00
2019-04-27T07:47:35.268Z,100.00
2019-04-27T07:50:09.670Z,100.00
2019-04-27T07:52:41.563Z,100.00
2019-04-27T07:55:13.283Z,100.00
2019-04-27T07:57:46.136Z,100.00
2019-04-27T08:00:19.146Z,100.00
2019-04-27T08:02:50.739Z,100.00
2019-04-27T08:05:22.644Z,100.00
2019-04-27T08:07:54.520Z,100.00
2019-04-27T08:10:26.230Z,100.00
2019-04-27T08:13:00.356Z,100.00
2019-04-27T08:15:31.770Z,100.00
2019-04-27T08:18:03.762Z,100.00
2019-04-27T08:20:35.286Z,100.00
2019-04-27T08:23:06.539Z,100.00
2019-04-27T08:25:39.228Z,100.00
2019-04-27T08:28:26.010Z,100.00
2019-04-27T08:31:08.934Z,100.00
2019-04-27T08:33:43.525Z,100.00
2019-04-27T08:36:15.279Z,100.00
2019-04-27T08:38:46.617Z,100.00
2019-04-27T08:41:19.714Z,100.00
2019-04-27T08:43:50.957Z,100.00
2019-04-27T08:46:22.596Z,100.00
2019-04-27T08:48:54.242Z,100.00
2019-04-27T08:51:25.594Z,100.00
2019-04-27T08:53:57.033Z,100.00
2019-04-27T08:56:28.413Z,100.00
2019-04-27T08:58:59.656Z,100.00
2019-04-27T09:01:32.462Z,100.00
2019-04-27T09:04:09.209Z,100.00
2019-04-27T09:06:49.255Z,100.00
2019-04-27T09:09:34.267Z,100.00
2019-04-27T09:12:42.623Z,100.00
2019-04-27T09:15:24.835Z,100.00
2019-04-27T09:17:58.750Z,100.00
2019-04-27T09:20:36.742Z,100.00
2019-04-27T09:23:09.863Z,100.00
2019-04-27T09:25:41.237Z,100.00
2019-04-27T09:28:12.855Z,100.00
2019-04-27T09:30:44.351Z,100.00
2019-04-27T09:33:15.705Z,100.00
2019-04-27T09:35:46.935Z,100.00
2019-04-27T09:38:18.537Z,100.00
2019-04-27T09:40:50.041Z,100.00
2019-04-27T09:43:21.229Z,100.00
2019-04-27T09:45:52.525Z,100.00
2019-04-27T09:48:25.770Z,100.00
2019-04-27T09:50:57.075Z,100.00
2019-04-27T09:53:28.560Z,100.00
2019-04-27T09:55:59.831Z,100.00
2019-04-27T09:58:31.207Z,100.00
2019-04-27T10:01:03.212Z,100.00
2019-04-27T10:03:36.068Z,100.00
2019-04-27T10:06:07.345Z,100.00
2019-04-27T10:08:38.726Z,100.00
2019-04-27T10:11:09.987Z,100.00
2019-04-27T10:13:41.505Z,100.00
2019-04-27T10:16:13.552Z,100.00
2019-04-27T10:18:45.866Z,100.00
2019-04-27T10:21:17.183Z,100.00
2019-04-27T10:23:48.628Z,100.00
2019-04-27T10:26:19.834Z,100.00
2019-04-27T10:28:51.282Z,100.00
2019-04-27T10:31:22.681Z,100.00
2019-04-27T10:33:55.833Z,100.00
2019-04-27T10:36:42.870Z,100.00
2019-04-27T10:39:14.887Z,100.00
2019-04-27T10:41:47.324Z,100.00
2019-04-27T10:44:19.141Z,100.00
2019-04-27T10:46:50.525Z,100.00
2019-04-27T10:49:21.759Z,100.00
2019-04-27T10:51:53.123Z,100.00
2019-04-27T10:54:24.485Z,100.00
2019-04-27T10:56:56.313Z,100.00
2019-04-27T10:59:27.722Z,100.00
2019-04-27T11:01:59.253Z,100.00
2019-04-27T11:04:43.713Z,100.00
2019-04-27T11:07:17.507Z,100.00
2019-04-27T11:09:50.408Z,100.00
2019-04-27T11:12:22.742Z,100.00
2019-04-27T11:14:54.358Z,100.00
2019-04-27T11:17:26.682Z,100.00
2019-04-27T11:19:58.217Z,100.00
2019-04-27T11:22:29.848Z,100.00
2019-04-27T11:25:01.552Z,100.00
2019-04-27T11:27:32.904Z,100.00
2019-04-27T11:30:06.604Z,100.00
2019-04-27T11:32:37.883Z,100.00
2019-04-27T11:35:35.660Z,100.00
2019-04-27T11:38:07.248Z,100.00
2019-04-27T11:40:38.926Z,100.00
2019-04-27T11:43:10.298Z,100.00
2019-04-27T11:45:41.616Z,100.00
2019-04-27T11:48:12.854Z,100.00
2019-04-27T11:50:45.826Z,100.00
2019-04-27T11:53:22.851Z,100.00
2019-04-27T11:55:50.323Z,100.00
2019-04-27T11:58:21.537Z,100.00
2019-04-27T12:00:52.715Z,100.00
2019-04-27T12:03:24.099Z,100.00
2019-04-27T12:05:59.709Z,100.00
2019-04-27T12:08:28.331Z,100.00
2019-04-27T12:10:59.990Z,100.00
2019-04-27T12:13:31.286Z,100.00
2019-04-27T12:16:02.590Z,100.00
2019-04-27T12:18:34.602Z,100.00
2019-04-27T12:21:06.254Z,100.00
2019-04-27T12:23:41.272Z,100.00
2019-04-27T12:26:26.606Z,100.00
2019-04-27T12:28:58.679Z,100.00
2019-04-27T12:31:33.250Z,100.00
2019-04-27T12:34:06.119Z,100.00
2019-04-27T12:36:37.911Z,100.00
2019-04-27T12:39:15.626Z,100.00
2019-04-27T12:41:47.197Z,100.00
2019-04-27T12:44:18.428Z,100.00
2019-04-27T12:46:49.727Z,100.00
2019-04-27T12:49:20.975Z,100.00
2019-04-27T12:51:52.501Z,100.00
2019-04-27T12:54:38.284Z,100.00
2019-04-27T12:57:47.406Z,100.00
2019-04-27T13:00:26.520Z,100.00
2019-04-27T13:02:58.336Z,100.00
2019-04-27T13:05:29.853Z,100.00
2019-04-27T13:08:02.063Z,100.00
2019-04-27T13:10:33.287Z,100.00
2019-04-27T13:13:06.266Z,100.00
2019-04-27T13:15:38.117Z,100.00
2019-04-27T13:18:09.462Z,100.00
2019-04-27T13:20:40.801Z,100.00
2019-04-27T13:23:12.369Z,100.00
2019-04-27T13:25:44.058Z,100.00
2019-04-27T13:28:16.134Z,100.00
2019-04-27T13:30:47.666Z,100.00
2019-04-27T13:33:18.968Z,100.00
2019-04-27T13:35:50.343Z,100.00
2019-04-27T13:38:21.621Z,100.00
2019-04-27T13:41:06.333Z,100.00
2019-04-27T13:43:38.139Z,100.00
2019-04-27T13:46:34.251Z,100.00
2019-04-27T13:49:27.570Z,100.00
2019-04-27T13:52:06.125Z,100.00
2019-04-27T13:54:37.562Z,100.00
2019-04-27T13:57:09.594Z,100.00
2019-04-27T13:59:41.825Z,100.00
2019-04-27T14:02:15.599Z,100.00
2019-04-27T14:04:47.204Z,100.00
2019-04-27T14:07:18.518Z,100.00
2019-04-27T14:09:50.543Z,100.00
2019-04-27T14:12:22.068Z,100.00
2019-04-27T14:14:53.775Z,93.34
2019-04-27T14:17:25.056Z,86.28
2019-04-27T14:19:56.753Z,81.98
2019-04-27T14:22:28.542Z,91.56
2019-04-27T14:25:01.116Z,80.22
2019-04-27T14:27:40.456Z,81.98
2019-04-27T14:30:13.919Z,75.07
2019-04-27T14:32:45.258Z,74.00
2019-04-27T14:35:18.126Z,72.83
2019-04-27T14:37:50.418Z,79.51
2019-04-27T14:40:21.706Z,94.16
2019-04-27T14:42:53.738Z,100.00
2019-04-27T14:45:26.354Z,100.00
2019-04-27T14:47:58.261Z,100.00
2019-04-27T14:50:30.146Z,100.00
2019-04-27T14:53:01.403Z,100.00
2019-04-27T14:55:33.867Z,100.00
2019-04-27T14:58:08.646Z,100.00
2019-04-27T15:00:40.633Z,100.00
2019-04-27T15:03:11.855Z,100.00
2019-04-27T15:05:43.124Z,100.00
2019-04-27T15:08:14.417Z,100.00
2019-04-27T15:10:46.483Z,100.00
2019-04-27T15:13:18.982Z,100.00
2019-04-27T15:15:50.263Z,100.00
2019-04-27T15:18:23.141Z,100.00
2019-04-27T15:20:54.351Z,100.00
2019-04-27T15:23:26.577Z,100.00
2019-04-27T15:26:00.361Z,100.00
2019-04-27T15:28:33.299Z,100.00
2019-04-27T15:31:26.924Z,100.00
2019-04-27T15:34:11.214Z,100.00
2019-04-27T15:37:00.611Z,100.00
2019-04-27T15:39:50.531Z,100.00
2019-04-27T15:42:30.555Z,100.00
2019-04-27T15:45:01.866Z,100.00
2019-04-27T15:47:33.683Z,100.00
2019-04-27T15:50:05.618Z,100.00
2019-04-27T15:52:38.361Z,100.00
2019-04-27T15:55:31.243Z,100.00
2019-04-27T15:57:47.059Z,100.00
2019-04-27T16:00:22.093Z,100.00
2019-04-27T16:02:53.716Z,100.00
2019-04-27T16:05:28.629Z,100.00
2019-04-27T16:08:00.986Z,100.00
2019-04-27T16:10:32.863Z,100.00
2019-04-27T16:13:06.844Z,100.00
2019-04-27T16:15:38.389Z,100.00
2019-04-27T16:18:10.248Z,100.00
2019-04-27T16:20:41.494Z,100.00
2019-04-27T16:23:12.827Z,100.00
2019-04-27T16:25:48.493Z,100.00
2019-04-27T16:28:18.410Z,100.00
2019-04-27T16:30:53.007Z,100.00
2019-04-27T16:33:23.589Z,100.00
2019-04-27T16:36:00.315Z,100.00
2019-04-27T16:38:53.158Z,100.00
2019-04-27T16:41:24.405Z,100.00
2019-04-27T16:43:58.139Z,100.00
2019-04-27T16:46:29.530Z,100.00
2019-04-27T16:49:01.230Z,100.00
2019-04-27T16:51:36.688Z,100.00
2019-04-27T16:54:06.470Z,100.00
2019-04-27T16:56:38.103Z,100.00
2019-04-27T16:59:34.949Z,100.00
2019-04-27T17:01:46.278Z,100.00
2019-04-27T17:04:15.663Z,100.00
2019-04-27T17:06:49.390Z,100.00
2019-04-27T17:09:20.404Z,100.00
2019-04-27T17:11:51.892Z,100.00
2019-04-27T17:14:35.060Z,100.00
2019-04-27T17:17:22.293Z,100.00
2019-04-27T17:19:58.158Z,100.00
2019-04-27T17:22:29.631Z,100.00
2019-04-27T17:25:01.257Z,100.00
2019-04-27T17:27:48.281Z,100.00
2019-04-27T17:30:20.212Z,100.00
2019-04-27T17:33:11.751Z,100.00
2019-04-27T17:35:42.827Z,100.00
2019-04-27T17:38:15.871Z,100.00
2019-04-27T17:40:48.446Z,100.00
2019-04-27T17:43:20.082Z,100.00
2019-04-27T17:45:52.340Z,100.00
2019-04-27T17:48:23.525Z,100.00
2019-04-27T17:50:55.969Z,100.00
2019-04-27T17:53:29.866Z,100.00
2019-04-27T17:56:05.704Z,100.00
2019-04-27T17:58:35.474Z,100.00
2019-04-27T18:01:09.583Z,100.00
2019-04-27T18:03:41.342Z,100.00
2019-04-27T18:06:12.617Z,100.00
2019-04-27T18:08:43.835Z,100.00
2019-04-27T18:11:15.140Z,100.00
2019-04-27T18:13:48.669Z,100.00
2019-04-27T18:16:23.712Z,100.00
2019-04-27T18:19:21.562Z,100.00
2019-04-27T18:22:00.883Z,100.00
2019-04-27T18:24:39.924Z,100.00
2019-04-27T18:27:29.137Z,100.00
2019-04-27T18:30:19.261Z,100.00
2019-04-27T18:32:50.538Z,100.00
2019-04-27T18:35:26.362Z,100.00
2019-04-27T18:37:58.388Z,100.00
2019-04-27T18:40:32.230Z,100.00
2019-04-27T18:43:01.984Z,100.00
2019-04-27T18:45:40.021Z,100.00
2019-04-27T18:48:13.885Z,100.00
2019-04-27T18:50:56.521Z,100.00
2019-04-27T18:53:29.360Z,100.00
2019-04-27T18:56:05.131Z,100.00
2019-04-27T18:58:34.634Z,100.00
2019-04-27T19:01:05.986Z,100.00
2019-04-27T19:03:39.095Z,100.00
2019-04-27T19:06:10.347Z,100.00
2019-04-27T19:08:41.599Z,100.00
2019-04-27T19:11:12.911Z,100.00
2019-04-27T19:13:44.085Z,100.00
2019-04-27T19:16:15.831Z,100.00
2019-04-27T19:18:48.055Z,100.00
2019-04-27T19:21:20.145Z,100.00
2019-04-27T19:23:51.561Z,100.00
2019-04-27T19:26:29.813Z,100.00
2019-04-27T19:29:14.979Z,100.00
2019-04-27T19:31:50.044Z,100.00
2019-04-27T19:34:21.541Z,100.00
2019-04-27T19:36:53.973Z,100.00
2019-04-27T19:39:25.357Z,100.00
2019-04-27T19:42:01.374Z,100.00
2019-04-27T19:44:30.476Z,100.00
2019-04-27T19:47:02.264Z,100.00
2019-04-27T19:49:34.496Z,100.00
2019-04-27T19:52:05.710Z,100.00
2019-04-27T19:54:36.969Z,100.00
2019-04-27T19:57:09.134Z,100.00
2019-04-27T19:59:48.947Z,100.00
2019-04-27T20:02:21.624Z,100.00
2019-04-27T20:05:03.803Z,100.00
2019-04-27T20:07:38.060Z,100.00
2019-04-27T20:10:10.185Z,100.00
2019-04-27T20:12:51.339Z,100.00
2019-04-27T20:15:25.297Z,100.00
2019-04-27T20:17:56.920Z,100.00
2019-04-27T20:20:28.148Z,100.00
2019-04-27T20:23:15.006Z,100.00
2019-04-27T20:25:46.305Z,100.00
2019-04-27T20:28:17.538Z,100.00
2019-04-27T20:30:49.146Z,100.00
2019-04-27T20:33:21.040Z,100.00
2019-04-27T20:35:52.936Z,100.00
2019-04-27T20:38:24.134Z,100.00
2019-04-27T20:40:55.761Z,100.00
2019-04-27T20:43:28.063Z,100.00
2019-04-27T20:46:01.021Z,100.00
2019-04-27T20:48:33.394Z,100.00
2019-04-27T20:51:04.997Z,100.00
2019-04-27T20:53:44.178Z,100.00
2019-04-27T20:56:15.362Z,100.00
2019-04-27T20:58:50.982Z,100.00
2019-04-27T21:01:22.173Z,100.00
2019-04-27T21:04:00.924Z,100.00
2019-04-27T21:06:42.637Z,100.00
2019-04-27T21:09:18.793Z,100.00
2019-04-27T21:11:50.034Z,100.00
2019-04-27T21:14:21.848Z,100.00
2019-04-27T21:16:53.143Z,100.00
2019-04-27T21:19:24.386Z,100.00
2019-04-27T21:21:55.666Z,100.00
2019-04-27T21:24:26.935Z,100.00
2019-04-27T21:26:58.259Z,100.00
2019-04-27T21:29:31.166Z,100.00
2019-04-27T21:32:02.681Z,100.00
2019-04-27T21:34:34.205Z,100.00
2019-04-27T21:37:05.495Z,100.00
2019-04-27T21:39:36.846Z,100.00
2019-04-27T21:42:08.105Z,100.00
2019-04-27T21:44:39.422Z,100.00
2019-04-27T21:47:11.173Z,100.00
2019-04-27T21:49:43.024Z,100.00
2019-04-27T21:52:24.011Z,100.00
2019-04-27T21:54:55.822Z,100.00
2019-04-27T21:57:27.101Z,100.00
2019-04-27T21:59:58.573Z,100.00
2019-04-27T22:02:32.638Z,100.00
2019-04-27T22:05:03.815Z,100.00
2019-04-27T22:07:37.565Z,100.00
2019-04-27T22:10:10.594Z,100.00
2019-04-27T22:12:42.213Z,100.00
2019-04-27T22:15:14.388Z,100.00
2019-04-27T22:17:46.114Z,100.00
2019-04-27T22:20:17.933Z,100.00
2019-04-27T22:22:51.666Z,100.00
2019-04-27T22:25:23.552Z,100.00
2019-04-27T22:27:55.229Z,100.00
2019-04-27T22:30:28.280Z,100.00
2019-04-27T22:33:01.478Z,100.00
2019-04-27T22:35:33.034Z,100.00
2019-04-27T22:38:05.232Z,100.00
2019-04-27T22:40:56.970Z,100.00
2019-04-27T22:44:13.583Z,100.00
2019-04-27T22:59:24.523Z,100.00
2019-04-27T23:02:13.671Z,100.00
2019-04-27T23:04:54.124Z,100.00
2019-04-27T23:07:28.157Z,100.00
2019-04-27T23:10:01.808Z,100.00
2019-04-27T23:12:33.666Z,100.00
2019-04-27T23:18:03.288Z,100.00
2019-04-27T23:20:35.378Z,100.00
2019-04-27T23:23:06.817Z,100.00
2019-04-27T23:26:01.824Z,100.00
2019-04-27T23:28:35.113Z,100.00
2019-04-27T23:31:22.194Z,100.00
2019-04-27T23:33:53.841Z,100.00
2019-04-27T23:36:26.634Z,100.00
2019-04-27T23:38:58.454Z,100.00
2019-04-27T23:41:30.204Z,100.00
2019-04-27T23:44:01.954Z,100.00
2019-04-27T23:46:34.673Z,100.00
2019-04-27T23:49:05.949Z,100.00
2019-04-27T23:51:43.776Z,100.00
2019-04-27T23:54:15.387Z,100.00
2019-04-27T23:56:48.465Z,100.00
2019-04-27T23:59:24.959Z,100.00
